createdAt,value
2019-04-23T00:00:08.768Z,45.50
2019-04-23T00:02:30.172Z,46.00
2019-04-23T00:05:01.802Z,45.90
2019-04-23T00:07:44.307Z,46.20
2019-04-23T00:10:03.504Z,46.50
2019-04-23T00:13:40.737Z,46.60
2019-04-23T00:17:40.168Z,46.90
2019-04-23T00:20:03.842Z,47.30
2019-04-23T00:22:36.539Z,47.70
2019-04-23T00:27:59.424Z,47.90
2019-04-23T00:30:39.598Z,48.90
2019-04-23T00:32:55.471Z,48.50
2019-04-23T00:35:29.100Z,48.60
2019-04-23T00:38:04.705Z,49.00
2019-04-23T00:40:31.772Z,49.10
2019-04-23T00:43:03.447Z,49.30
2019-04-23T00:48:09.264Z,50.40
2019-04-23T00:50:38.425Z,51.10
2019-04-23T00:53:17.423Z,50.70
2019-04-23T00:55:31.270Z,50.90
2019-04-23T00:58:08.501Z,51.20
2019-04-23T01:03:05.814Z,51.60
2019-04-23T01:05:35.574Z,51.90
2019-04-23T01:08:06.285Z,52.10
2019-04-23T01:10:45.846Z,52.40
2019-04-23T01:13:14.884Z,52.80
2019-04-23T01:15:49.448Z,52.60
2019-04-23T01:18:32.563Z,53.20
2019-04-23T01:20:53.782Z,53.40
2019-04-23T01:23:37.744Z,53.20
2019-04-23T01:26:16.185Z,53.80
2019-04-23T01:28:55.908Z,53.90
2019-04-23T01:31:31.956Z,54.40
2019-04-23T01:33:53.317Z,53.80
2019-04-23T01:38:55.948Z,55.20
2019-04-23T01:41:30.422Z,55.40
2019-04-23T01:43:50.322Z,55.30
2019-04-23T01:46:29.140Z,55.80
2019-04-23T01:48:58.228Z,55.40
2019-04-23T01:51:26.186Z,54.90
2019-04-23T01:56:24.312Z,56.50
2019-04-23T01:59:03.554Z,56.80
2019-04-23T02:01:25.288Z,57.30
2019-04-23T02:06:27.981Z,57.90
2019-04-23T02:08:59.937Z,58.10
2019-04-23T02:11:28.472Z,57.40
2019-04-23T02:13:55.563Z,58.70
2019-04-23T02:16:32.719Z,58.20
2019-04-23T02:18:56.772Z,58.90
2019-04-23T02:21:47.755Z,58.70
2019-04-23T02:23:59.696Z,59.60
2019-04-23T02:26:33.329Z,59.60
2019-04-23T02:29:03.593Z,59.50
2019-04-23T02:31:48.964Z,60.30
2019-04-23T02:34:14.374Z,60.70
2019-04-23T02:36:39.776Z,61.00
2019-04-23T02:39:26.500Z,61.60
2019-04-23T02:44:11.672Z,60.10
2019-04-23T02:46:31.305Z,62.10
2019-04-23T02:54:22.897Z,63.20
2019-04-23T02:59:11.136Z,61.80
2019-04-23T03:01:34.302Z,64.00
2019-04-23T03:06:38.839Z,61.10
2019-04-23T03:09:12.858Z,65.40
2019-04-23T03:11:41.789Z,64.60
2019-04-23T03:14:12.059Z,64.30
2019-04-23T03:16:53.198Z,64.10
2019-04-23T03:19:21.620Z,64.90
2019-04-23T03:21:52.790Z,65.10
2019-04-23T03:29:40.469Z,66.30
2019-04-23T03:39:42.108Z,65.10
2019-04-23T03:42:02.668Z,67.20
2019-04-23T03:47:07.079Z,66.90
2019-04-23T03:49:30.102Z,67.50
2019-04-23T03:52:19.298Z,67.30
2019-04-23T03:59:36.878Z,68.80
2019-04-23T04:02:15.498Z,68.70
2019-04-23T04:09:34.172Z,69.10
2019-04-23T04:12:07.806Z,67.70
2019-04-23T04:19:39.690Z,69.40
2019-04-23T04:27:06.100Z,69.90
2019-04-23T04:29:39.666Z,70.20
2019-04-23T04:32:02.591Z,68.50
2019-04-23T04:39:33.565Z,70.30
2019-04-23T04:42:09.325Z,70.30
2019-04-23T04:46:58.692Z,70.80
2019-04-23T04:49:48.644Z,70.60
2019-04-23T04:52:26.758Z,71.00
2019-04-23T04:54:22.965Z,71.40
2019-04-23T04:57:14.370Z,68.90
2019-04-23T04:59:40.033Z,68.70
2019-04-23T05:04:38.132Z,71.40
2019-04-23T05:07:30.453Z,71.40
2019-04-23T05:09:43.905Z,71.60
2019-04-23T05:12:14.368Z,72.00
2019-04-23T05:17:13.399Z,73.30
2019-04-23T05:22:06.527Z,70.00
2019-04-23T05:24:36.810Z,72.70
2019-04-23T05:27:04.749Z,72.40
2019-04-23T05:29:41.445Z,72.90
2019-04-23T05:32:06.626Z,73.50
2019-04-23T05:34:35.715Z,73.80
2019-04-23T05:37:07.053Z,71.30
2019-04-23T05:42:04.428Z,74.00
2019-04-23T05:44:38.727Z,73.90
2019-04-23T05:49:39.721Z,72.90
2019-04-23T05:52:07.527Z,73.30
2019-04-23T05:54:44.918Z,72.70
2019-04-23T05:57:07.026Z,73.90
2019-04-23T05:59:34.318Z,74.30
2019-04-23T06:02:13.216Z,74.00
2019-04-23T06:07:22.102Z,74.50
2019-04-23T06:09:44.711Z,74.70
2019-04-23T06:12:07.621Z,74.80
2019-04-23T06:19:36.679Z,74.70
2019-04-23T06:22:20.665Z,74.70
2019-04-23T06:24:47.062Z,75.00
2019-04-23T06:27:16.586Z,75.60
2019-04-23T06:29:39.763Z,75.00
2019-04-23T06:32:07.990Z,75.20
2019-04-23T06:34:45.559Z,75.10
2019-04-23T06:37:08.991Z,74.80
2019-04-23T06:39:41.283Z,75.20
2019-04-23T06:42:23.368Z,76.00
2019-04-23T06:44:45.020Z,75.10
2019-04-23T06:47:12.947Z,74.50
2019-04-23T06:49:46.843Z,74.60
2019-04-23T06:54:48.024Z,74.50
2019-04-23T06:57:19.214Z,74.50
2019-04-23T06:59:43.882Z,73.70
2019-04-23T07:04:55.383Z,74.00
2019-04-23T07:07:38.065Z,73.80
2019-04-23T07:09:45.573Z,73.70
2019-04-23T07:12:15.083Z,73.60
2019-04-23T07:14:51.491Z,73.30
2019-04-23T07:17:23.173Z,73.20
2019-04-23T07:22:16.429Z,73.00
2019-04-23T07:24:49.134Z,72.40
2019-04-23T07:27:19.103Z,72.90
2019-04-23T07:32:32.873Z,73.20
2019-04-23T07:34:49.400Z,73.00
2019-04-23T07:37:19.004Z,73.30
2019-04-23T07:40:07.680Z,73.70
2019-04-23T07:42:29.698Z,73.50
2019-04-23T07:45:10.523Z,73.70
2019-04-23T07:48:03.461Z,73.50
2019-04-23T07:50:33.515Z,73.40
2019-04-23T07:55:38.841Z,74.10
2019-04-23T07:58:00.267Z,75.60
2019-04-23T08:00:37.693Z,74.20
2019-04-23T08:03:05.293Z,74.30
2019-04-23T08:07:55.861Z,73.90
2019-04-23T08:10:29.676Z,73.30
2019-04-23T08:12:58.487Z,73.70
2019-04-23T08:15:28.212Z,72.70
2019-04-23T08:18:00.226Z,72.50
2019-04-23T08:20:29.954Z,72.70
2019-04-23T08:23:03.860Z,72.70
2019-04-23T08:25:48.863Z,72.80
2019-04-23T08:28:13.566Z,72.70
2019-04-23T08:30:42.426Z,72.70
2019-04-23T08:33:12.077Z,72.40
2019-04-23T08:35:43.558Z,72.00
2019-04-23T08:38:21.062Z,71.40
2019-04-23T08:40:54.409Z,71.00
2019-04-23T08:43:31.453Z,71.20
2019-04-23T08:45:48.201Z,71.00
2019-04-23T08:48:32.837Z,70.40
2019-04-23T08:56:07.704Z,69.10
2019-04-23T08:58:25.889Z,69.40
2019-04-23T09:01:27.579Z,70.10
2019-04-23T09:03:34.373Z,70.00
2019-04-23T09:08:27.824Z,69.80
2019-04-23T09:11:13.747Z,69.60
2019-04-23T09:20:47.990Z,70.40
2019-04-23T09:23:28.362Z,70.20
2019-04-23T09:25:55.595Z,68.80
2019-04-23T09:28:33.223Z,68.80
2019-04-23T09:31:04.019Z,68.80
2019-04-23T09:33:58.028Z,68.20
2019-04-23T09:36:34.642Z,68.50
2019-04-23T09:39:08.258Z,67.60
2019-04-23T09:41:32.782Z,67.20
2019-04-23T09:44:27.606Z,66.80
2019-04-23T09:47:13.928Z,66.60
2019-04-23T09:52:01.065Z,66.10
2019-04-23T09:54:38.197Z,67.20
2019-04-23T09:57:13.420Z,66.40
2019-04-23T09:59:40.423Z,65.60
2019-04-23T10:01:52.868Z,65.50
2019-04-23T10:04:17.574Z,66.20
2019-04-23T10:06:36.836Z,66.00
2019-04-23T10:09:06.636Z,65.00
2019-04-23T10:11:34.624Z,65.00
2019-04-23T10:14:03.122Z,65.30
2019-04-23T10:16:34.217Z,63.50
2019-04-23T10:19:01.677Z,63.60
2019-04-23T10:21:31.197Z,62.30
2019-04-23T10:24:01.280Z,63.10
2019-04-23T10:26:30.297Z,64.00
2019-04-23T10:29:02.109Z,63.90
2019-04-23T10:31:31.519Z,63.00
2019-04-23T10:34:00.262Z,62.10
2019-04-23T10:36:31.680Z,62.20
2019-04-23T10:39:04.952Z,63.40
2019-04-23T10:41:30.604Z,63.60
2019-04-23T10:44:13.025Z,63.30
2019-04-23T10:47:17.780Z,63.20
2019-04-23T10:50:31.652Z,63.10
2019-04-23T10:54:54.713Z,61.70
2019-04-23T11:00:03.667Z,60.30
2019-04-23T11:05:00.029Z,59.70
2019-04-23T11:07:30.777Z,60.30
2019-04-23T11:15:28.852Z,61.00
2019-04-23T11:20:27.068Z,61.80
2019-04-23T11:27:55.411Z,61.80
2019-04-23T11:33:00.821Z,61.40
2019-04-23T11:37:58.721Z,61.80
2019-04-23T11:38:12.159Z,61.90
2019-04-23T11:40:21.482Z,61.60
2019-04-23T11:48:22.389Z,61.40
2019-04-23T11:50:41.726Z,61.00
2019-04-23T11:53:10.049Z,62.20
2019-04-23T11:58:08.756Z,59.70
2019-04-23T12:00:38.931Z,60.10
2019-04-23T12:03:04.185Z,60.40
2019-04-23T12:06:07.519Z,59.80
2019-04-23T12:08:37.733Z,59.70
2019-04-23T12:11:39.802Z,59.00
2019-04-23T12:14:03.656Z,58.70
2019-04-23T12:16:31.967Z,58.40
2019-04-23T12:19:15.844Z,58.60
2019-04-23T12:21:40.473Z,56.90
2019-04-23T12:24:04.710Z,56.80
2019-04-23T12:26:35.526Z,56.10
2019-04-23T12:28:57.555Z,55.50
2019-04-23T12:31:36.031Z,55.80
2019-04-23T12:34:14.979Z,56.80
2019-04-23T12:36:37.949Z,55.50
2019-04-23T12:39:09.107Z,56.20
2019-04-23T12:41:36.265Z,56.40
2019-04-23T12:43:58.049Z,55.80
2019-04-23T12:46:39.637Z,55.60
2019-04-23T12:49:07.017Z,55.50
2019-04-23T12:54:12.736Z,54.90
2019-04-23T12:56:49.101Z,55.40
2019-04-23T12:59:01.744Z,54.90
2019-04-23T13:01:42.304Z,54.60
2019-04-23T13:03:59.709Z,55.40
2019-04-23T13:06:28.177Z,54.70
2019-04-23T13:09:14.236Z,55.30
2019-04-23T13:11:38.342Z,57.40
2019-04-23T13:14:08.584Z,55.00
2019-04-23T13:19:16.840Z,55.00
2019-04-23T13:21:51.437Z,55.10
2019-04-23T13:24:09.534Z,55.40
2019-04-23T13:26:37.985Z,54.60
2019-04-23T13:29:23.803Z,55.00
2019-04-23T13:31:39.806Z,55.20
2019-04-23T13:34:19.461Z,55.70
2019-04-23T13:36:45.448Z,56.20
2019-04-23T13:39:21.243Z,56.10
2019-04-23T13:41:42.160Z,56.50
2019-04-23T13:44:08.875Z,56.80
2019-04-23T13:46:39.921Z,57.50
2019-04-23T13:49:18.522Z,57.30
2019-04-23T13:51:39.379Z,58.20
2019-04-23T13:54:17.071Z,58.60
2019-04-23T13:57:12.856Z,58.60
2019-04-23T13:59:28.847Z,58.50
2019-04-23T14:01:40.029Z,58.50
2019-04-23T14:04:38.939Z,58.70
2019-04-23T14:06:53.904Z,59.00
2019-04-23T14:09:31.471Z,59.60
2019-04-23T14:11:46.587Z,58.50
2019-04-23T14:14:36.340Z,59.10
2019-04-23T14:17:18.216Z,59.40
2019-04-23T14:19:16.282Z,59.20
2019-04-23T14:21:51.744Z,59.20
2019-04-23T14:24:45.233Z,59.00
2019-04-23T14:26:55.989Z,59.40
2019-04-23T14:29:30.615Z,59.30
2019-04-23T14:34:37.688Z,60.50
2019-04-23T14:37:00.386Z,60.50
2019-04-23T14:39:28.682Z,60.00
2019-04-23T14:41:57.797Z,60.00
2019-04-23T14:44:19.714Z,58.70
2019-04-23T14:47:03.718Z,59.50
2019-04-23T14:49:40.742Z,60.00
2019-04-23T14:51:58.921Z,59.70
2019-04-23T14:55:06.182Z,59.20
2019-04-23T14:57:14.572Z,59.80
2019-04-23T14:59:32.212Z,58.90
2019-04-23T15:02:05.380Z,59.00
2019-04-23T15:07:11.013Z,58.60
2019-04-23T15:14:47.818Z,59.50
2019-04-23T15:17:07.235Z,59.10
2019-04-23T15:22:21.644Z,58.30
2019-04-23T15:25:05.309Z,58.00
2019-04-23T15:28:03.114Z,58.40
2019-04-23T15:29:45.829Z,58.40
2019-04-23T15:32:23.871Z,58.50
2019-04-23T15:40:04.294Z,57.90
2019-04-23T15:42:26.143Z,58.70
2019-04-23T15:45:05.301Z,59.60
2019-04-23T15:47:28.416Z,58.70
2019-04-23T15:49:59.135Z,58.60
2019-04-23T15:52:30.224Z,59.00
2019-04-23T15:57:41.816Z,58.80
2019-04-23T15:59:55.981Z,58.30
2019-04-23T16:01:57.440Z,58.60
2019-04-23T16:04:25.845Z,58.60
2019-04-23T16:06:54.223Z,57.60
2019-04-23T16:10:03.197Z,57.90
2019-04-23T16:12:17.357Z,57.70
2019-04-23T16:14:57.007Z,57.60
2019-04-23T16:22:32.114Z,57.80
2019-04-23T16:27:20.057Z,57.80
2019-04-23T16:30:10.817Z,57.60
2019-04-23T16:32:52.492Z,58.60
2019-04-23T16:35:31.053Z,59.00
2019-04-23T16:37:46.677Z,59.50
2019-04-23T16:40:19.297Z,59.20
2019-04-23T16:42:47.903Z,59.50
2019-04-23T16:45:15.273Z,59.10
2019-04-23T16:47:48.352Z,58.60
2019-04-23T16:50:18.160Z,58.90
2019-04-23T16:52:46.304Z,58.90
2019-04-23T16:55:16.634Z,58.70
2019-04-23T17:00:24.106Z,59.60
2019-04-23T17:02:54.665Z,59.40
2019-04-23T17:05:21.659Z,59.00
2019-04-23T17:07:53.765Z,59.50
2019-04-23T17:10:23.937Z,59.00
2019-04-23T17:12:52.482Z,59.60
2019-04-23T17:15:21.177Z,59.70
2019-04-23T17:17:46.913Z,59.90
2019-04-23T17:20:27.276Z,60.30
2019-04-23T17:25:24.817Z,61.20
2019-04-23T17:27:59.081Z,61.80
2019-04-23T17:30:19.550Z,61.90
2019-04-23T17:32:57.107Z,61.80
2019-04-23T17:35:30.041Z,61.50
2019-04-23T17:38:00.177Z,61.40
2019-04-23T17:40:47.494Z,61.60
2019-04-23T17:43:04.693Z,61.40
2019-04-23T17:45:46.930Z,61.80
2019-04-23T17:53:29.866Z,62.10
2019-04-23T17:55:57.590Z,61.60
2019-04-23T17:58:23.365Z,61.60
2019-04-23T18:03:30.438Z,62.50
2019-04-23T18:06:04.077Z,62.50
2019-04-23T18:08:19.432Z,62.90
2019-04-23T18:10:59.467Z,62.90
2019-04-23T18:13:21.085Z,63.30
2019-04-23T18:15:58.354Z,63.60
2019-04-23T18:18:34.875Z,63.90
2019-04-23T18:21:03.475Z,64.10
2019-04-23T18:23:41.653Z,65.10
2019-04-23T18:26:04.109Z,65.20
2019-04-23T18:28:37.640Z,65.30
2019-04-23T18:31:15.611Z,65.30
2019-04-23T18:34:03.553Z,65.50
2019-04-23T18:36:08.124Z,65.50
2019-04-23T18:38:47.887Z,65.90
2019-04-23T18:41:27.310Z,66.00
2019-04-23T18:44:02.886Z,67.00
2019-04-23T18:48:50.456Z,66.90
2019-04-23T18:51:11.651Z,67.40
2019-04-23T19:01:23.189Z,67.80
2019-04-23T19:09:17.804Z,68.80
2019-04-23T19:12:25.564Z,68.80
2019-04-23T19:14:40.842Z,69.00
2019-04-23T19:24:37.741Z,68.60
2019-04-23T19:29:50.859Z,69.50
2019-04-23T19:37:02.473Z,70.40
2019-04-23T19:39:48.332Z,70.80
2019-04-23T19:44:43.812Z,71.70
2019-04-23T19:47:27.183Z,72.20
2019-04-23T19:49:38.556Z,72.00
2019-04-23T19:54:42.879Z,71.40
2019-04-23T19:57:22.107Z,72.10
2019-04-23T20:04:41.013Z,72.80
2019-04-23T20:09:50.753Z,72.70
2019-04-23T20:12:06.440Z,72.70
2019-04-23T20:19:44.064Z,72.40
2019-04-23T20:22:16.700Z,74.10
2019-04-23T20:24:57.729Z,73.90
2019-04-23T20:27:32.095Z,74.60
2019-04-23T20:33:16.988Z,75.70
2019-04-23T20:37:30.315Z,74.50
2019-04-23T20:39:59.997Z,74.70
2019-04-23T20:42:20.284Z,74.10
2019-04-23T20:44:53.921Z,75.20
2019-04-23T20:55:00.028Z,74.90
2019-04-23T21:00:08.933Z,76.80
2019-04-23T21:03:18.277Z,76.40
2019-04-23T21:07:57.916Z,77.10
2019-04-23T21:13:09.253Z,76.60
2019-04-23T21:17:51.552Z,76.30
2019-04-23T21:20:30.088Z,76.00
2019-04-23T21:22:45.346Z,76.00
2019-04-23T21:25:08.358Z,76.30
2019-04-23T21:30:53.646Z,77.00
2019-04-23T21:33:09.015Z,76.30
2019-04-23T21:36:12.587Z,76.60
2019-04-23T21:41:29.926Z,76.90
2019-04-23T21:46:22.655Z,77.60
2019-04-23T21:51:30.938Z,78.60
2019-04-23T21:53:51.677Z,77.30
2019-04-23T21:58:58.046Z,79.30
2019-04-23T22:01:36.896Z,75.70
2019-04-23T22:04:08.649Z,76.30
2019-04-23T22:11:48.297Z,80.20
2019-04-23T22:14:05.542Z,80.60
2019-04-23T22:16:23.405Z,79.00
2019-04-23T22:24:03.130Z,79.30
2019-04-23T22:31:40.308Z,78.00
2019-04-23T22:34:17.266Z,80.90
2019-04-23T22:36:32.102Z,83.10
2019-04-23T22:39:04.574Z,80.30
2019-04-23T22:41:36.281Z,80.60
2019-04-23T22:44:05.374Z,80.80
2019-04-23T22:46:38.021Z,81.40
2019-04-23T22:51:55.414Z,84.30
2019-04-23T22:54:13.795Z,84.40
2019-04-23T22:57:00.959Z,83.50
2019-04-23T22:59:26.586Z,83.60
2019-04-23T23:02:00.373Z,86.10
2019-04-23T23:09:39.786Z,86.30
2019-04-23T23:12:02.365Z,84.90
2019-04-23T23:14:27.044Z,85.90
2019-04-23T23:16:58.565Z,86.70
2019-04-23T23:19:29.904Z,84.80
2019-04-23T23:22:02.099Z,84.10
2019-04-23T23:24:33.707Z,86.10
2019-04-23T23:26:57.502Z,82.00
2019-04-23T23:29:34.647Z,87.80
2019-04-23T23:32:02.169Z,87.70
2019-04-23T23:34:38.355Z,86.60
2019-04-23T23:37:02.134Z,86.10
2019-04-23T23:39:27.470Z,89.20
2019-04-23T23:42:05.588Z,87.30
2019-04-23T23:47:04.463Z,85.80
2019-04-23T23:51:57.941Z,88.90
2019-04-23T23:54:27.491Z,86.60
2019-04-23T23:57:03.742Z,87.90
2019-04-23T23:59:34.977Z,86.20
